Time;durP1;ratioP1;P1;durP2;ratioP2;P2;SDS_P1;SDS_P2;PMS_P1;PMS_P2;Temp;Humidity;BMP_temperature;BMP_pressure;BME280_temperature;BME280_humidity;BME280_pressure;Samples;Min_cycle;Max_cycle;Signal;HPM_P1;HPM_P2
2022/02/25 00:00:29;;;;;;;0.10;0.10;;;;;;;;;;4129874;28;20113;-59
2022/02/25 00:02:31;;;;;;;0.00;0.00;;;;;;;;;;4129588;28;20066;-58
2022/02/25 00:04:32;;;;;;;0.43;0.10;;;;;;;;;;4129975;28;20061;-58
2022/02/25 00:06:33;;;;;;;0.00;0.00;;;;;;;;;;4130158;28;20161;-59
2022/02/25 00:08:35;;;;;;;0.08;0.00;;;;;;;;;;4129785;28;20066;-59
2022/02/25 00:10:36;;;;;;;0.00;0.00;;;;;;;;;;4129604;28;20487;-58
2022/02/25 00:12:38;;;;;;;1.15;0.10;;;;;;;;;;4129877;28;20073;-59
2022/02/25 00:14:40;;;;;;;0.10;0.10;;;;;;;;;;4140377;28;20126;-59
2022/02/25 00:16:41;;;;;;;0.30;0.00;;;;;;;;;;4129636;28;20062;-59
2022/02/25 00:18:42;;;;;;;0.10;0.08;;;;;;;;;;4129904;28;20059;-59
2022/02/25 00:20:43;;;;;;;0.00;0.00;;;;;;;;;;4129947;28;20058;-59
2022/02/25 00:22:45;;;;;;;0.00;0.00;;;;;;;;;;4129742;28;20054;-59
2022/02/25 00:24:46;;;;;;;0.00;0.00;;;;;;;;;;4145500;28;20456;-58
2022/02/25 00:26:47;;;;;;;0.00;0.00;;;;;;;;;;4145797;28;20065;-58
2022/02/25 00:28:48;;;;;;;0.10;0.10;;;;;;;;;;4146282;28;20117;-59
2022/02/25 00:30:51;;;;;;;0.15;0.10;;;;;;;;;;4145892;28;20514;-58
2022/02/25 00:32:52;;;;;;;0.00;0.00;;;;;;;;;;4117548;28;20059;-59
2022/02/25 00:34:53;;;;;;;0.00;0.00;;;;;;;;;;4112543;28;20106;-58
2022/02/25 00:36:54;;;;;;;0.10;0.10;;;;;;;;;;4129695;28;20108;-59
2022/02/25 00:38:55;;;;;;;0.30;0.10;;;;;;;;;;4129395;28;20062;-58
2022/02/25 00:40:56;;;;;;;0.20;0.03;;;;;;;;;;4129795;28;20117;-58
2022/02/25 00:42:57;;;;;;;0.08;0.03;;;;;;;;;;4129599;28;20050;-59
2022/02/25 00:44:59;;;;;;;0.00;0.00;;;;;;;;;;4129797;28;20050;-59
2022/02/25 00:47:00;;;;;;;0.13;0.10;;;;;;;;;;4129106;28;20058;-58
2022/02/25 00:49:01;;;;;;;0.20;0.20;;;;;;;;;;4130055;28;20058;-58
2022/02/25 00:51:02;;;;;;;0.10;0.00;;;;;;;;;;4128299;28;20521;-59
2022/02/25 00:53:03;;;;;;;1.10;0.10;;;;;;;;;;4112140;28;20130;-58
2022/02/25 00:55:05;;;;;;;0.03;0.00;;;;;;;;;;4129517;28;20457;-58
2022/02/25 00:57:07;;;;;;;0.00;0.00;;;;;;;;;;4129277;28;20494;-59
2022/02/25 00:59:08;;;;;;;0.30;0.10;;;;;;;;;;4129445;28;20410;-59
2022/02/25 01:01:09;;;;;;;0.20;0.10;;;;;;;;;;4131311;28;20058;-58
2022/02/25 01:03:10;;;;;;;0.10;0.10;;;;;;;;;;4130572;28;20125;-59
2022/02/25 01:05:12;;;;;;;0.17;0.05;;;;;;;;;;4132270;28;20063;-59
2022/02/25 01:07:13;;;;;;;0.10;0.00;;;;;;;;;;4132148;28;20057;-59
2022/02/25 01:09:14;;;;;;;0.10;0.10;;;;;;;;;;4123248;28;20069;-58
2022/02/25 01:11:15;;;;;;;0.43;0.10;;;;;;;;;;4148409;28;20064;-60
2022/02/25 01:13:16;;;;;;;0.25;0.10;;;;;;;;;;4147202;28;20058;-58
2022/02/25 01:15:17;;;;;;;0.05;0.00;;;;;;;;;;4148232;28;20065;-59
2022/02/25 01:17:19;;;;;;;0.10;0.10;;;;;;;;;;4148019;28;20064;-59
2022/02/25 01:19:20;;;;;;;0.13;0.08;;;;;;;;;;4148258;28;20057;-59
2022/02/25 01:21:21;;;;;;;0.08;0.08;;;;;;;;;;4148244;28;20410;-58
2022/02/25 01:23:23;;;;;;;0.05;0.05;;;;;;;;;;4147073;28;20054;-59
2022/02/25 01:25:25;;;;;;;0.08;0.08;;;;;;;;;;4148151;28;20112;-59
2022/02/25 01:27:27;;;;;;;0.05;0.05;;;;;;;;;;4147952;28;20507;-59
2022/02/25 01:29:28;;;;;;;0.30;0.00;;;;;;;;;;4148340;28;20064;-59
2022/02/25 01:31:29;;;;;;;0.30;0.00;;;;;;;;;;4148117;28;20062;-58
2022/02/25 01:33:30;;;;;;;0.10;0.10;;;;;;;;;;4146398;28;20069;-59
2022/02/25 01:35:33;;;;;;;0.00;0.00;;;;;;;;;;4148142;28;20068;-59
2022/02/25 01:37:34;;;;;;;0.20;0.00;;;;;;;;;;4147831;28;20516;-59
2022/02/25 01:39:35;;;;;;;0.10;0.10;;;;;;;;;;4148236;28;20085;-58
2022/02/25 01:41:36;;;;;;;0.00;0.00;;;;;;;;;;4147810;28;20551;-58
2022/02/25 01:43:37;;;;;;;0.10;0.10;;;;;;;;;;4148196;28;20100;-57
2022/02/25 01:45:39;;;;;;;0.52;0.20;;;;;;;;;;4130497;28;20334;-57
2022/02/25 01:47:40;;;;;;;0.03;0.00;;;;;;;;;;4147587;28;20371;-59
2022/02/25 01:49:42;;;;;;;0.10;0.10;;;;;;;;;;4147918;28;20457;-59
2022/02/25 01:51:44;;;;;;;0.10;0.10;;;;;;;;;;4147521;28;20484;-59
2022/02/25 01:53:45;;;;;;;0.68;0.10;;;;;;;;;;4147879;28;20108;-58
2022/02/25 01:55:47;;;;;;;0.03;0.00;;;;;;;;;;4147707;28;20371;-58
2022/02/25 01:57:48;;;;;;;0.15;0.08;;;;;;;;;;4139282;28;20066;-59
2022/02/25 01:59:49;;;;;;;0.08;0.08;;;;;;;;;;4130300;28;20090;-58
2022/02/25 02:01:51;;;;;;;0.10;0.10;;;;;;;;;;4131083;28;20058;-59
2022/02/25 02:03:55;;;;;;;0.20;0.10;;;;;;;;;;4130180;28;20550;-58
2022/02/25 02:05:56;;;;;;;0.10;0.10;;;;;;;;;;4131317;28;20065;-59
2022/02/25 02:07:57;;;;;;;0.08;0.08;;;;;;;;;;4130367;28;20190;-59
2022/02/25 02:09:59;;;;;;;0.15;0.08;;;;;;;;;;4131227;28;20108;-58
2022/02/25 02:12:00;;;;;;;1.10;0.10;;;;;;;;;;4129410;28;20061;-58
2022/02/25 02:14:03;;;;;;;0.00;0.00;;;;;;;;;;4131218;28;20105;-58
2022/02/25 02:16:04;;;;;;;0.10;0.10;;;;;;;;;;4131511;28;20177;-60
2022/02/25 02:18:06;;;;;;;0.00;0.00;;;;;;;;;;4130721;28;20517;-59
2022/02/25 02:20:07;;;;;;;0.10;0.00;;;;;;;;;;4131168;28;20129;-58
2022/02/25 02:22:09;;;;;;;0.10;0.03;;;;;;;;;;4145964;28;20106;-59
2022/02/25 02:24:12;;;;;;;0.10;0.10;;;;;;;;;;4131155;28;20564;-58
2022/02/25 02:26:13;;;;;;;0.00;0.00;;;;;;;;;;4135196;28;20445;-60
2022/02/25 02:28:21;;;;;;;0.10;0.05;;;;;;;;;;4145865;28;20119;-58
2022/02/25 02:30:22;;;;;;;0.50;0.20;;;;;;;;;;4147105;28;20505;-60
2022/02/25 02:32:23;;;;;;;0.05;0.05;;;;;;;;;;4139170;28;20089;-58
2022/02/25 02:34:25;;;;;;;0.03;0.00;;;;;;;;;;4130912;28;20069;-58
2022/02/25 02:36:26;;;;;;;0.00;0.00;;;;;;;;;;4131050;28;20050;-59
2022/02/25 02:38:27;;;;;;;0.00;0.00;;;;;;;;;;4130846;28;20057;-58
2022/02/25 02:40:28;;;;;;;0.50;0.10;;;;;;;;;;4131122;28;20066;-59
2022/02/25 02:42:29;;;;;;;0.20;0.10;;;;;;;;;;4130871;28;20340;-58
2022/02/25 02:44:30;;;;;;;0.28;0.10;;;;;;;;;;4129817;28;20120;-59
2022/02/25 02:46:31;;;;;;;0.00;0.00;;;;;;;;;;4129901;28;20058;-58
2022/02/25 02:48:33;;;;;;;0.00;0.00;;;;;;;;;;4130582;28;20461;-58
2022/02/25 02:50:34;;;;;;;0.10;0.08;;;;;;;;;;4130586;28;20399;-60
2022/02/25 02:52:35;;;;;;;0.10;0.10;;;;;;;;;;4130884;28;20055;-59
2022/02/25 02:54:36;;;;;;;0.10;0.08;;;;;;;;;;4130640;28;20616;-59
2022/02/25 02:56:37;;;;;;;0.10;0.10;;;;;;;;;;4130797;28;20058;-59
2022/02/25 02:58:39;;;;;;;0.00;0.00;;;;;;;;;;4130831;28;20116;-59
2022/02/25 03:00:42;;;;;;;0.00;0.00;;;;;;;;;;4129694;28;20157;-58
2022/02/25 03:02:43;;;;;;;0.10;0.10;;;;;;;;;;4130168;28;20101;-59
2022/02/25 03:04:44;;;;;;;0.10;0.10;;;;;;;;;;4130431;28;20069;-58
2022/02/25 03:06:45;;;;;;;0.30;0.10;;;;;;;;;;4130328;28;20486;-59
2022/02/25 03:08:46;;;;;;;0.10;0.10;;;;;;;;;;4130482;28;20058;-59
2022/02/25 03:10:48;;;;;;;0.05;0.05;;;;;;;;;;4130331;28;20046;-59
2022/02/25 03:12:49;;;;;;;0.35;0.10;;;;;;;;;;4130360;28;20058;-58
2022/02/25 03:14:50;;;;;;;0.10;0.10;;;;;;;;;;4130688;28;20058;-59
2022/02/25 03:16:51;;;;;;;0.15;0.13;;;;;;;;;;4129818;28;20422;-58
2022/02/25 03:18:52;;;;;;;0.00;0.00;;;;;;;;;;4130419;28;20112;-58
2022/02/25 03:20:54;;;;;;;0.10;0.10;;;;;;;;;;4130443;28;20054;-58
2022/02/25 03:22:55;;;;;;;0.10;0.10;;;;;;;;;;4129962;28;20061;-56
2022/02/25 03:24:56;;;;;;;0.00;0.00;;;;;;;;;;4130268;28;20050;-59
2022/02/25 03:26:59;;;;;;;0.10;0.10;;;;;;;;;;4129988;28;20070;-59
2022/02/25 03:29:00;;;;;;;0.10;0.10;;;;;;;;;;4130856;28;20073;-58
2022/02/25 03:31:02;;;;;;;0.00;0.00;;;;;;;;;;4130441;28;20061;-59
2022/02/25 03:33:03;;;;;;;0.00;0.00;;;;;;;;;;4129537;28;20062;-59
2022/02/25 03:35:05;;;;;;;0.15;0.08;;;;;;;;;;4130322;28;20117;-58
2022/02/25 03:37:06;;;;;;;0.00;0.00;;;;;;;;;;4130200;28;20062;-58
2022/02/25 03:39:07;;;;;;;0.00;0.00;;;;;;;;;;4130386;28;20058;-60
2022/02/25 03:41:08;;;;;;;0.10;0.10;;;;;;;;;;4112855;28;20427;-59
2022/02/25 03:43:10;;;;;;;0.25;0.00;;;;;;;;;;4129011;28;20403;-58
2022/02/25 03:45:12;;;;;;;0.30;0.10;;;;;;;;;;4130187;28;20058;-58
2022/02/25 03:47:13;;;;;;;0.13;0.00;;;;;;;;;;4128477;28;20113;-59
2022/02/25 03:49:15;;;;;;;0.05;0.05;;;;;;;;;;4129963;28;20069;-59
2022/02/25 03:51:17;;;;;;;0.10;0.00;;;;;;;;;;4130191;28;20055;-59
2022/02/25 03:53:18;;;;;;;0.17;0.10;;;;;;;;;;4129997;28;20505;-59
2022/02/25 03:55:19;;;;;;;0.00;0.00;;;;;;;;;;4130021;28;20068;-60
2022/02/25 03:57:21;;;;;;;0.00;0.00;;;;;;;;;;4125400;28;20058;-59
2022/02/25 03:59:22;;;;;;;0.10;0.00;;;;;;;;;;4114252;28;20063;-59
2022/02/25 04:01:24;;;;;;;0.00;0.00;;;;;;;;;;4112565;28;20054;-58
2022/02/25 04:03:25;;;;;;;0.00;0.00;;;;;;;;;;4113575;28;20069;-59
2022/02/25 04:05:26;;;;;;;0.20;0.10;;;;;;;;;;4113814;28;20440;-59
2022/02/25 04:07:27;;;;;;;0.10;0.10;;;;;;;;;;4113638;28;20106;-58
2022/02/25 04:09:28;;;;;;;0.13;0.10;;;;;;;;;;4113774;28;20411;-59
2022/02/25 04:11:29;;;;;;;0.05;0.05;;;;;;;;;;4113680;28;20452;-59
2022/02/25 04:13:30;;;;;;;0.00;0.00;;;;;;;;;;4113698;28;20111;-59
2022/02/25 04:15:33;;;;;;;0.20;0.10;;;;;;;;;;4113935;28;20065;-59
2022/02/25 04:17:34;;;;;;;0.10;0.00;;;;;;;;;;4113223;28;20066;-59
2022/02/25 04:19:36;;;;;;;0.10;0.10;;;;;;;;;;4113754;28;20482;-58
2022/02/25 04:21:37;;;;;;;0.10;0.10;;;;;;;;;;4113653;28;20483;-59
2022/02/25 04:23:38;;;;;;;0.00;0.00;;;;;;;;;;4114032;28;20054;-59
2022/02/25 04:25:39;;;;;;;0.10;0.10;;;;;;;;;;4112719;28;20062;-58
2022/02/25 04:27:41;;;;;;;0.00;0.00;;;;;;;;;;4127812;28;20089;-59
2022/02/25 04:29:42;;;;;;;0.17;0.17;;;;;;;;;;4129716;28;20058;-58
2022/02/25 04:31:43;;;;;;;0.00;0.00;;;;;;;;;;4129022;28;20128;-60
2022/02/25 04:33:45;;;;;;;0.20;0.10;;;;;;;;;;4129992;28;20113;-58
2022/02/25 04:35:46;;;;;;;0.00;0.00;;;;;;;;;;4132325;28;20552;-59
2022/02/25 04:37:47;;;;;;;0.00;0.00;;;;;;;;;;4132722;28;20195;-59
2022/02/25 04:39:49;;;;;;;0.28;0.10;;;;;;;;;;4146133;28;20100;-58
2022/02/25 04:41:50;;;;;;;0.05;0.03;;;;;;;;;;4131373;28;20058;-59
2022/02/25 04:43:51;;;;;;;0.00;0.00;;;;;;;;;;4131735;28;20062;-58
2022/02/25 04:45:52;;;;;;;0.05;0.03;;;;;;;;;;4148815;28;20490;-59
2022/02/25 04:47:55;;;;;;;0.10;0.10;;;;;;;;;;4148570;28;20054;-59
2022/02/25 04:49:56;;;;;;;0.00;0.00;;;;;;;;;;4148841;28;20077;-58
2022/02/25 04:51:57;;;;;;;0.00;0.00;;;;;;;;;;4148611;28;20058;-59
2022/02/25 04:53:59;;;;;;;0.00;0.00;;;;;;;;;;4149103;28;20061;-59
2022/02/25 04:56:00;;;;;;;0.00;0.00;;;;;;;;;;4148714;28;20050;-59
2022/02/25 04:58:02;;;;;;;0.45;0.17;;;;;;;;;;4148577;28;20061;-57
2022/02/25 05:00:06;;;;;;;0.20;0.10;;;;;;;;;;4148548;28;20069;-59
2022/02/25 05:02:08;;;;;;;0.03;0.03;;;;;;;;;;4146957;28;20402;-58
2022/02/25 05:04:09;;;;;;;0.32;0.10;;;;;;;;;;4131093;28;20057;-58
2022/02/25 05:06:10;;;;;;;0.38;0.10;;;;;;;;;;4148302;28;20145;-59
2022/02/25 05:08:11;;;;;;;0.00;0.00;;;;;;;;;;4132341;28;20058;-58
2022/02/25 05:10:12;;;;;;;0.10;0.10;;;;;;;;;;4132463;28;20085;-59
2022/02/25 05:12:14;;;;;;;0.35;0.10;;;;;;;;;;4132163;28;20458;-57
2022/02/25 05:21:27;;;;;;;0.00;0.00;;;;;;;;;;4109732;28;20058;-58
2022/02/25 05:23:28;;;;;;;0.10;0.10;;;;;;;;;;4114604;28;20059;-59
2022/02/25 05:25:31;;;;;;;0.20;0.10;;;;;;;;;;4131939;28;20058;-59
2022/02/25 05:27:32;;;;;;;0.10;0.10;;;;;;;;;;4145070;28;20128;-59
2022/02/25 05:29:35;;;;;;;0.13;0.10;;;;;;;;;;4148052;28;20061;-59
2022/02/25 05:31:36;;;;;;;0.10;0.10;;;;;;;;;;4147866;28;20124;-58
2022/02/25 05:33:37;;;;;;;0.75;0.20;;;;;;;;;;4146667;28;20129;-58
2022/02/25 05:35:38;;;;;;;0.00;0.00;;;;;;;;;;4146959;28;20152;-57
2022/02/25 05:37:41;;;;;;;0.10;0.00;;;;;;;;;;4146696;28;20561;-59
2022/02/25 05:39:42;;;;;;;0.20;0.05;;;;;;;;;;4147923;28;20123;-59
2022/02/25 05:41:43;;;;;;;0.00;0.00;;;;;;;;;;4148242;28;20111;-59
2022/02/25 05:43:44;;;;;;;0.10;0.10;;;;;;;;;;4147914;28;20141;-59
2022/02/25 05:45:45;;;;;;;0.10;0.10;;;;;;;;;;4133384;28;20481;-58
2022/02/25 05:47:46;;;;;;;0.00;0.00;;;;;;;;;;4146077;28;20049;-59
2022/02/25 05:49:47;;;;;;;0.20;0.10;;;;;;;;;;4145373;28;20587;-58
2022/02/25 05:51:48;;;;;;;0.13;0.10;;;;;;;;;;4147440;28;20561;-59
2022/02/25 05:53:50;;;;;;;0.08;0.08;;;;;;;;;;4147921;28;20096;-59
2022/02/25 05:55:51;;;;;;;0.20;0.10;;;;;;;;;;4148019;28;20061;-60
2022/02/25 05:57:52;;;;;;;0.95;0.10;;;;;;;;;;4147598;28;20100;-59
2022/02/25 05:59:54;;;;;;;0.65;0.20;;;;;;;;;;4147782;28;20494;-59
2022/02/25 06:01:55;;;;;;;0.22;0.10;;;;;;;;;;4111249;28;20089;-59
2022/02/25 06:03:57;;;;;;;0.17;0.10;;;;;;;;;;4113554;28;20136;-58
2022/02/25 06:05:58;;;;;;;0.10;0.10;;;;;;;;;;4113361;28;20058;-59
2022/02/25 06:08:00;;;;;;;1.00;0.20;;;;;;;;;;4113626;28;20059;-58
2022/02/25 06:10:01;;;;;;;0.98;0.20;;;;;;;;;;4096197;28;20528;-58
2022/02/25 06:12:05;;;;;;;0.20;0.10;;;;;;;;;;4113018;28;20515;-59
2022/02/25 06:14:06;;;;;;;1.02;0.20;;;;;;;;;;4113401;28;20109;-58
2022/02/25 06:16:07;;;;;;;0.17;0.10;;;;;;;;;;4113395;28;20486;-58
2022/02/25 06:18:09;;;;;;;0.28;0.28;;;;;;;;;;4113096;28;20085;-58
2022/02/25 06:20:10;;;;;;;0.20;0.10;;;;;;;;;;4112161;28;20058;-60
2022/02/25 06:22:11;;;;;;;0.38;0.17;;;;;;;;;;4113342;28;20098;-59
2022/02/25 06:24:12;;;;;;;0.50;0.10;;;;;;;;;;4113197;28;20517;-58
2022/02/25 06:26:13;;;;;;;0.55;0.20;;;;;;;;;;4116114;28;20121;-58
2022/02/25 06:28:15;;;;;;;0.32;0.20;;;;;;;;;;4142720;28;20058;-58
2022/02/25 06:30:16;;;;;;;0.35;0.20;;;;;;;;;;4145291;28;20065;-56
2022/02/25 06:32:17;;;;;;;0.20;0.20;;;;;;;;;;4144641;28;20060;-58
2022/02/25 06:34:18;;;;;;;0.50;0.15;;;;;;;;;;4135700;28;20399;-58
2022/02/25 06:36:19;;;;;;;0.47;0.10;;;;;;;;;;4128730;28;20058;-58
2022/02/25 06:38:20;;;;;;;4.88;0.50;;;;;;;;;;4128948;28;20404;-58
2022/02/25 06:40:22;;;;;;;0.57;0.20;;;;;;;;;;4128998;28;20062;-58
2022/02/25 06:42:23;;;;;;;0.82;0.28;;;;;;;;;;4128796;28;20314;-57
2022/02/25 06:44:24;;;;;;;0.82;0.22;;;;;;;;;;4128932;28;20116;-59
2022/02/25 06:46:25;;;;;;;0.50;0.25;;;;;;;;;;4143039;28;20145;-58
2022/02/25 06:48:26;;;;;;;0.10;0.10;;;;;;;;;;4126066;28;20519;-58
2022/02/25 06:50:27;;;;;;;0.65;0.20;;;;;;;;;;4133764;28;20139;-58
2022/02/25 06:52:28;;;;;;;0.70;0.20;;;;;;;;;;4131606;28;20100;-58
2022/02/25 06:54:30;;;;;;;0.15;0.10;;;;;;;;;;4134847;28;20058;-58
2022/02/25 06:56:31;;;;;;;0.40;0.30;;;;;;;;;;4127316;28;20054;-58
2022/02/25 06:58:34;;;;;;;0.20;0.17;;;;;;;;;;4110353;28;20110;-58
2022/02/25 07:00:37;;;;;;;0.85;0.40;;;;;;;;;;4136166;28;20133;-59
2022/02/25 07:02:38;;;;;;;0.60;0.30;;;;;;;;;;4134470;28;20477;-59
2022/02/25 07:04:39;;;;;;;0.52;0.30;;;;;;;;;;4106371;28;20126;-58
2022/02/25 07:06:40;;;;;;;1.05;0.15;;;;;;;;;;4098810;28;20070;-56
2022/02/25 07:08:41;;;;;;;0.25;0.13;;;;;;;;;;4127287;28;20569;-59
2022/02/25 07:10:43;;;;;;;0.30;0.13;;;;;;;;;;4123557;28;20502;-59
2022/02/25 07:12:44;;;;;;;0.30;0.13;;;;;;;;;;4129701;28;20435;-59
2022/02/25 07:14:45;;;;;;;0.57;0.20;;;;;;;;;;4118988;28;20065;-57
2022/02/25 07:16:46;;;;;;;0.95;0.40;;;;;;;;;;4117574;28;20544;-56
2022/02/25 07:18:48;;;;;;;0.38;0.20;;;;;;;;;;4123485;28;20545;-60
2022/02/25 07:20:48;;;;;;;0.73;0.30;;;;;;;;;;4124366;28;20054;-61
2022/02/25 07:22:50;;;;;;;0.43;0.25;;;;;;;;;;4129534;28;20557;-59
2022/02/25 07:24:52;;;;;;;0.60;0.32;;;;;;;;;;4115972;28;20065;-60
2022/02/25 07:26:53;;;;;;;0.40;0.20;;;;;;;;;;4093332;28;20154;-60
2022/02/25 07:28:54;;;;;;;1.42;0.28;;;;;;;;;;4075199;29;20095;-62
2022/02/25 07:30:55;;;;;;;0.63;0.20;;;;;;;;;;4105672;28;20047;-58
2022/02/25 07:32:57;;;;;;;0.30;0.30;;;;;;;;;;4110864;28;20057;-57
2022/02/25 07:34:58;;;;;;;0.35;0.13;;;;;;;;;;4108678;28;20050;-59
2022/02/25 07:36:59;;;;;;;1.48;0.20;;;;;;;;;;4110662;28;20047;-60
2022/02/25 07:39:00;;;;;;;0.40;0.20;;;;;;;;;;4105806;28;20065;-59
2022/02/25 07:41:01;;;;;;;0.47;0.20;;;;;;;;;;4109930;28;20101;-59
2022/02/25 07:43:02;;;;;;;0.85;0.30;;;;;;;;;;4109874;28;20054;-58
2022/02/25 07:45:04;;;;;;;0.40;0.10;;;;;;;;;;4101338;28;20062;-58
2022/02/25 07:47:05;;;;;;;0.13;0.10;;;;;;;;;;4106789;28;20062;-57
2022/02/25 07:49:06;;;;;;;0.65;0.28;;;;;;;;;;4105192;28;20479;-57
2022/02/25 07:51:08;;;;;;;0.40;0.22;;;;;;;;;;4100035;28;20110;-59
2022/02/25 07:53:09;;;;;;;0.73;0.30;;;;;;;;;;4105195;28;20059;-58
2022/02/25 07:55:11;;;;;;;0.40;0.20;;;;;;;;;;4099439;28;20141;-57
2022/02/25 07:57:13;;;;;;;0.77;0.38;;;;;;;;;;4103437;28;20111;-56
2022/02/25 07:59:15;;;;;;;0.63;0.20;;;;;;;;;;4093792;28;20114;-60
2022/02/25 08:01:16;;;;;;;0.28;0.20;;;;;;;;;;4092080;28;20117;-60
2022/02/25 08:03:17;;;;;;;0.45;0.20;;;;;;;;;;4090261;28;20100;-59
2022/02/25 08:05:18;;;;;;;0.38;0.20;;;;;;;;;;4103025;28;20098;-60
2022/02/25 08:07:19;;;;;;;0.50;0.20;;;;;;;;;;4104283;28;20161;-60
2022/02/25 08:09:21;;;;;;;0.30;0.20;;;;;;;;;;4100150;28;20459;-60
2022/02/25 08:11:23;;;;;;;0.38;0.20;;;;;;;;;;4104906;28;20055;-58
2022/02/25 08:13:24;;;;;;;0.30;0.20;;;;;;;;;;4105319;28;20204;-60
2022/02/25 08:15:26;;;;;;;0.98;0.30;;;;;;;;;;4103091;28;20129;-59
2022/02/25 08:17:27;;;;;;;0.40;0.30;;;;;;;;;;4108428;28;20062;-58
2022/02/25 08:19:28;;;;;;;0.30;0.20;;;;;;;;;;4099715;28;20062;-59
2022/02/25 08:21:29;;;;;;;0.45;0.28;;;;;;;;;;4100805;28;20053;-59
2022/02/25 08:23:30;;;;;;;0.35;0.20;;;;;;;;;;4093477;28;20433;-58
2022/02/25 08:25:33;;;;;;;0.80;0.38;;;;;;;;;;4087045;28;20086;-60
2022/02/25 08:27:35;;;;;;;0.30;0.30;;;;;;;;;;4100400;28;20661;-59
2022/02/25 08:29:36;;;;;;;0.55;0.30;;;;;;;;;;4106365;28;20070;-58
2022/02/25 08:31:37;;;;;;;0.32;0.28;;;;;;;;;;4104254;28;20438;-60
2022/02/25 08:33:39;;;;;;;0.57;0.30;;;;;;;;;;4105276;28;20566;-59
2022/02/25 08:35:41;;;;;;;1.05;0.30;;;;;;;;;;4110263;28;20117;-59
2022/02/25 08:37:42;;;;;;;0.35;0.28;;;;;;;;;;4110133;28;20569;-57
2022/02/25 08:39:43;;;;;;;0.50;0.20;;;;;;;;;;4109645;28;20059;-59
2022/02/25 08:41:45;;;;;;;0.47;0.20;;;;;;;;;;4107544;28;20058;-61
2022/02/25 08:43:47;;;;;;;0.20;0.20;;;;;;;;;;4104973;28;20503;-59
2022/02/25 08:45:48;;;;;;;1.00;0.32;;;;;;;;;;4107412;28;20070;-59
2022/02/25 08:47:49;;;;;;;0.82;0.30;;;;;;;;;;4107488;28;20055;-57
2022/02/25 08:49:51;;;;;;;1.23;0.35;;;;;;;;;;4107774;28;20054;-58
2022/02/25 08:51:52;;;;;;;0.55;0.40;;;;;;;;;;4102109;28;20051;-58
2022/02/25 08:53:53;;;;;;;1.30;0.50;;;;;;;;;;4101430;28;20085;-58
2022/02/25 08:55:54;;;;;;;0.30;0.25;;;;;;;;;;4102822;28;20184;-57
2022/02/25 08:57:55;;;;;;;0.60;0.40;;;;;;;;;;4104863;28;20145;-57
2022/02/25 08:59:56;;;;;;;0.40;0.20;;;;;;;;;;4088641;28;20206;-58
2022/02/25 09:01:57;;;;;;;0.65;0.20;;;;;;;;;;4107909;28;20054;-57
2022/02/25 09:04:02;;;;;;;0.60;0.30;;;;;;;;;;4104898;28;20065;-58
2022/02/25 09:06:03;;;;;;;1.05;0.20;;;;;;;;;;4106000;28;20767;-59
2022/02/25 09:08:05;;;;;;;0.47;0.20;;;;;;;;;;4102092;28;20253;-57
2022/02/25 09:10:08;;;;;;;0.80;0.40;;;;;;;;;;4101712;28;20483;-56
2022/02/25 09:12:12;;;;;;;0.85;0.22;;;;;;;;;;4106776;28;20530;-58
2022/02/25 09:14:13;;;;;;;0.95;0.30;;;;;;;;;;4104642;28;20565;-56
2022/02/25 09:16:14;;;;;;;1.00;0.30;;;;;;;;;;4105994;28;20324;-55
2022/02/25 09:18:15;;;;;;;0.30;0.20;;;;;;;;;;4103891;28;20059;-58
2022/02/25 09:20:17;;;;;;;0.90;0.30;;;;;;;;;;4105856;28;20121;-58
2022/02/25 09:22:18;;;;;;;0.88;0.30;;;;;;;;;;4101827;28;20055;-59
2022/02/25 09:24:21;;;;;;;0.45;0.20;;;;;;;;;;4103163;28;20055;-57
2022/02/25 09:26:24;;;;;;;0.43;0.20;;;;;;;;;;4108304;28;20465;-55
2022/02/25 09:28:25;;;;;;;0.80;0.30;;;;;;;;;;4103190;28;20204;-58
2022/02/25 09:30:27;;;;;;;0.50;0.20;;;;;;;;;;4107795;28;20665;-56
2022/02/25 09:32:28;;;;;;;0.40;0.20;;;;;;;;;;4102668;28;20495;-56
2022/02/25 09:34:30;;;;;;;0.30;0.20;;;;;;;;;;4090481;28;20739;-56
2022/02/25 09:36:31;;;;;;;1.05;0.38;;;;;;;;;;4102069;28;20669;-57
2022/02/25 09:38:33;;;;;;;0.55;0.30;;;;;;;;;;4090903;28;20063;-57
2022/02/25 09:40:34;;;;;;;0.52;0.32;;;;;;;;;;4106269;28;20106;-56
2022/02/25 09:42:35;;;;;;;1.52;0.50;;;;;;;;;;4108145;28;20108;-58
2022/02/25 09:44:36;;;;;;;0.45;0.20;;;;;;;;;;4107342;28;20055;-57
2022/02/25 09:46:38;;;;;;;0.50;0.30;;;;;;;;;;4098176;28;20058;-56
2022/02/25 09:48:39;;;;;;;1.13;0.47;;;;;;;;;;4105822;28;20117;-56
2022/02/25 09:50:42;;;;;;;0.65;0.30;;;;;;;;;;4104519;28;20109;-57
2022/02/25 09:52:43;;;;;;;0.50;0.40;;;;;;;;;;4105895;28;20058;-56
2022/02/25 09:54:44;;;;;;;0.40;0.20;;;;;;;;;;4102889;28;20059;-56
2022/02/25 09:56:47;;;;;;;0.30;0.30;;;;;;;;;;4106770;28;20062;-57
2022/02/25 09:58:48;;;;;;;0.63;0.30;;;;;;;;;;4103801;28;20054;-57
2022/02/25 10:00:49;;;;;;;0.73;0.38;;;;;;;;;;4100214;28;20523;-58
2022/02/25 10:02:55;;;;;;;0.40;0.30;;;;;;;;;;4099237;28;20055;-60
2022/02/25 10:05:14;;;;;;;0.70;0.30;;;;;;;;;;4110201;28;20522;-59
2022/02/25 10:07:27;;;;;;;0.55;0.28;;;;;;;;;;4069538;29;20583;-59
2022/02/25 10:09:34;;;;;;;2.00;0.50;;;;;;;;;;4105541;28;20132;-53
2022/02/25 10:11:58;;;;;;;1.38;0.55;;;;;;;;;;4108851;28;20058;-54
2022/02/25 10:14:11;;;;;;;1.90;0.40;;;;;;;;;;4104982;28;20062;-55
2022/02/25 10:16:12;;;;;;;0.90;0.40;;;;;;;;;;4104178;28;20051;-55
2022/02/25 10:18:17;;;;;;;1.95;0.30;;;;;;;;;;4106061;28;20054;-55
2022/02/25 10:20:18;;;;;;;0.30;0.25;;;;;;;;;;4104575;28;20521;-53
2022/02/25 10:22:21;;;;;;;0.82;0.40;;;;;;;;;;4107968;28;20114;-52
2022/02/25 10:24:22;;;;;;;1.10;0.50;;;;;;;;;;4105505;28;20546;-51
2022/02/25 10:26:25;;;;;;;0.40;0.30;;;;;;;;;;4111786;28;20125;-57
2022/02/25 10:28:31;;;;;;;0.90;0.40;;;;;;;;;;4118035;28;20050;-56
2022/02/25 10:30:32;;;;;;;0.20;0.20;;;;;;;;;;4119528;28;20065;-55
2022/02/25 10:32:36;;;;;;;1.13;0.32;;;;;;;;;;4115490;28;20534;-55
2022/02/25 10:34:37;;;;;;;0.63;0.30;;;;;;;;;;4109417;28;20051;-55
2022/02/25 10:36:47;;;;;;;0.43;0.25;;;;;;;;;;4122146;28;20436;-52
2022/02/25 10:38:49;;;;;;;0.77;0.25;;;;;;;;;;4128782;28;20054;-54
2022/02/25 10:40:52;;;;;;;0.52;0.30;;;;;;;;;;4121854;28;20490;-54
2022/02/25 10:42:53;;;;;;;0.70;0.30;;;;;;;;;;4111489;28;20062;-55
2022/02/25 10:45:02;;;;;;;2.13;0.43;;;;;;;;;;4115578;28;20528;-57
2022/02/25 10:47:18;;;;;;;0.30;0.20;;;;;;;;;;4119707;28;20065;-51
2022/02/25 10:49:26;;;;;;;0.57;0.40;;;;;;;;;;4123339;28;20479;-50
2022/02/25 10:51:33;;;;;;;4.07;0.38;;;;;;;;;;4116404;28;20102;-55
2022/02/25 10:53:37;;;;;;;0.65;0.30;;;;;;;;;;4120070;28;20114;-56
2022/02/25 10:55:39;;;;;;;0.60;0.35;;;;;;;;;;4114873;28;20058;-54
2022/02/25 10:57:40;;;;;;;0.45;0.22;;;;;;;;;;4117995;28;20085;-53
2022/02/25 10:59:45;;;;;;;1.35;0.38;;;;;;;;;;4116577;28;20474;-59
2022/02/25 11:01:46;;;;;;;0.30;0.20;;;;;;;;;;4115372;28;20517;-53
2022/02/25 11:04:00;;;;;;;0.63;0.30;;;;;;;;;;4124475;28;20136;-53
2022/02/25 11:06:06;;;;;;;0.47;0.20;;;;;;;;;;4134460;28;20061;-56
2022/02/25 11:08:07;;;;;;;0.32;0.30;;;;;;;;;;4122505;28;20462;-58
2022/02/25 11:10:10;;;;;;;0.40;0.20;;;;;;;;;;4127019;28;20096;-54
2022/02/25 11:12:11;;;;;;;0.63;0.30;;;;;;;;;;4121308;28;20047;-53
2022/02/25 11:14:13;;;;;;;0.98;0.30;;;;;;;;;;4116953;28;20423;-53
2022/02/25 11:16:16;;;;;;;0.68;0.30;;;;;;;;;;4131998;28;20612;-56
2022/02/25 11:18:18;;;;;;;0.45;0.30;;;;;;;;;;4122249;28;20113;-56
2022/02/25 11:20:23;;;;;;;0.60;0.30;;;;;;;;;;4121716;28;20418;-53
2022/02/25 11:22:25;;;;;;;0.75;0.30;;;;;;;;;;4119640;28;20042;-56
2022/02/25 11:24:28;;;;;;;0.82;0.32;;;;;;;;;;4124319;28;20124;-54
2022/02/25 11:26:29;;;;;;;0.50;0.30;;;;;;;;;;4119059;28;20100;-53
2022/02/25 11:28:31;;;;;;;0.50;0.40;;;;;;;;;;4120930;28;20062;-52
2022/02/25 11:31:00;;;;;;;0.75;0.40;;;;;;;;;;4091796;28;20460;-53
2022/02/25 11:33:04;;;;;;;0.43;0.22;;;;;;;;;;4108831;28;20061;-52
2022/02/25 11:35:22;;;;;;;0.43;0.22;;;;;;;;;;4119892;28;20054;-51
2022/02/25 11:37:48;;;;;;;0.60;0.40;;;;;;;;;;4102872;28;20146;-52
2022/02/25 11:39:49;;;;;;;0.55;0.30;;;;;;;;;;4115930;28;20110;-53
2022/02/25 11:41:58;;;;;;;0.68;0.30;;;;;;;;;;4123056;28;20300;-53
2022/02/25 11:44:03;;;;;;;0.82;0.30;;;;;;;;;;4104068;28;20400;-52
2022/02/25 11:46:08;;;;;;;1.30;0.50;;;;;;;;;;4120217;28;20058;-54
2022/02/25 11:48:09;;;;;;;0.45;0.30;;;;;;;;;;4120599;28;20782;-54
2022/02/25 11:50:37;;;;;;;0.50;0.30;;;;;;;;;;4121547;28;20062;-51
2022/02/25 11:52:38;;;;;;;0.57;0.20;;;;;;;;;;4116001;28;20119;-54
2022/02/25 11:54:46;;;;;;;0.50;0.35;;;;;;;;;;4098233;28;20590;-51
2022/02/25 11:56:56;;;;;;;0.50;0.30;;;;;;;;;;4122731;28;20538;-54
2022/02/25 11:58:57;;;;;;;;;;;;;;;;;;4119137;28;20422;-52
2022/02/25 12:01:15;;;;;;;0.65;0.32;;;;;;;;;;4110422;28;19928;-54
2022/02/25 12:03:16;;;;;;;1.75;0.40;;;;;;;;;;4124811;28;20058;-55
2022/02/25 12:05:17;;;;;;;0.98;0.32;;;;;;;;;;4120211;28;20066;-55
2022/02/25 12:07:28;;;;;;;1.00;0.55;;;;;;;;;;4119204;28;20109;-55
2022/02/25 12:09:53;;;;;;;0.60;0.40;;;;;;;;;;4100613;28;20463;-52
2022/02/25 12:11:54;;;;;;;0.80;0.35;;;;;;;;;;4121509;28;20050;-54
2022/02/25 12:13:56;;;;;;;1.40;0.30;;;;;;;;;;4122422;28;20069;-55
2022/02/25 12:15:57;;;;;;;0.60;0.28;;;;;;;;;;4120770;28;20471;-51
2022/02/25 12:17:58;;;;;;;0.60;0.20;;;;;;;;;;4121961;28;20062;-53
2022/02/25 12:20:25;;;;;;;0.50;0.22;;;;;;;;;;4122974;28;20448;-51